Language selection

My Weather Profile Weather Topics  | 

West Brevoort - southern half: Past 24 Hour Conditions

 

Mary's Harbour

05:30 PM NDT 25 September 2022
Disclaimer

This table is a summary of hourly weather conditions for the past 24 hours.
Please note that these observations might not always be representative of weather conditions over their associated marine area.

Date / Time
(NDT)
Wind(knots) Conditions Visibility(km) Pressure(kPa) Air tempC) Relative humidity(%) Dew pointC)
25 September 2022
17:30 SW 16 gust 27 Cloudy 16 99.5 11 74 7
16:30 SSW 18 gust 27 Cloudy 16 99.4 11 76 7
15:30 SSW 11 gust 25 Cloudy 16 99.4 12 72 7
14:30 SSW 18 gust 33 Mostly Cloudy 16 99.3 13 69 7
13:30 SW 27 gust 38 Partly Cloudy 16 99.2 12 72 7
12:30 SSW 21 gust 43 Partly Cloudy 16 99.1 13 75 9
11:30 SSW 23 gust 37 Cloudy 16 99.1 12 81 9
10:30 S 20 gust 34 Mostly Cloudy 16 99.1 12 82 9
9:30 S 21 gust 32 Mostly Cloudy 16 99.0 12 79 9
8:30 SSE 20 gust 31 Sunny 16 98.9 11 82 8
7:30 SSE 20 gust 26 Cloudy 16 98.9 11 86 9
6:30 SSE 18 gust 32 Cloudy 16 98.9 11 87 9
5:30 SSE 16 gust 29 Cloudy 16 99.0 11 89 9
4:30 SE 16 gust 25 Cloudy 13 99.0 11 91 10
3:30 SE 17 gust 28 Mist 8 99.1 11 94 10
2:30 SE 17 gust 26 Mist 6 99.2 12 96 11
1:30 ESE 23 gust 33 Mist 5 99.2 11 97 11
0:30 SE 13 gust 25 Light Rain 5 99.3 12 96 11
24 September 2022
23:30 SE 16 gust 24 Light Rain 5 99.4 11 98 11
22:30 SE 11 gust 18 Mist 5 99.5 11 97 11
21:30 SE 12 gust 27 Mist 5 99.6 11 96 11
20:30 SE 14 gust 22 Light Rain 5 99.6 12 97 11
19:30 SE 5 Mist 4 99.7 11 100 11
18:30 ESE 9 gust 18 Light Rain 8 99.7 12 100 12
17:30 E 5 Light Rain 0.4 99.7 10 100 10

Zoom-in to make a selection

Map of Atlantic - Labrador marine weather areas Kangiqsualujjuaq Airport Cape Kakkiviak Cape Kiglapait Cartwright Airport CFB Goose Bay Hopedale Mary's Harbour Nain Airport Makkovik Airport Saglek Tukialik Bay
Legend:
buoy Buoy
land station Land Station

Atlantic - Labrador Area

Another Region

What we are doing

Date modified: